Time;durP1;ratioP1;P1;durP2;ratioP2;P2;SDS_P1;SDS_P2;PMS_P1;PMS_P2;Temp;Humidity;BMP_temperature;BMP_pressure;BME280_temperature;BME280_humidity;BME280_pressure;Samples;Min_cycle;Max_cycle;Signal;HPM_P1;HPM_P2
2022/02/03 00:03:12;;;;;;;8.13;4.50;;;;;;;8.13;100.00;99296.47;5086435;28;20055;-69
2022/02/03 00:05:45;;;;;;;7.28;4.43;;;;;;;8.13;100.00;99299.94;5086759;28;20029;-69
2022/02/03 00:22:39;;;;;;;10.88;5.40;;;;;;;8.10;100.00;99273.72;5004858;28;20244;-69
2022/02/03 00:25:42;;;;;;;10.48;5.47;;;;;;;8.04;100.00;99267.59;5004518;28;20199;-69
2022/02/03 00:28:11;;;;;;;9.88;5.70;;;;;;;8.03;100.00;99277.22;5075169;28;20332;-69
2022/02/03 00:33:18;;;;;;;11.70;5.82;;;;;;;8.09;100.00;99276.34;5085922;28;20017;-69
2022/02/03 00:38:45;;;;;;;14.02;6.88;;;;;;;8.08;100.00;99258.88;5085893;28;20019;-69
2022/02/03 00:52:16;;;;;;;10.55;4.97;;;;;;;8.08;100.00;99270.25;5085349;28;20328;-69
2022/02/03 00:54:41;;;;;;;9.32;4.78;;;;;;;8.05;100.00;99262.38;5085314;28;20025;-69
2022/02/03 00:57:09;;;;;;;9.50;4.90;;;;;;;8.08;100.00;99259.75;5085535;28;20212;-69
2022/02/03 00:59:40;;;;;;;11.10;5.28;;;;;;;8.09;100.00;99292.94;5085050;28;20028;-69
2022/02/03 01:02:11;;;;;;;8.23;4.75;;;;;;;8.08;100.00;99269.34;5084902;28;20044;-69
2022/02/03 01:04:39;;;;;;;10.68;4.90;;;;;;;8.09;100.00;99274.59;5085052;28;20024;-69
2022/02/03 01:07:12;;;;;;;8.77;4.72;;;;;;;8.06;100.00;99271.97;5085246;28;20027;-69
2022/02/03 01:09:46;;;;;;;8.82;4.90;;;;;;;8.09;100.00;99271.09;5084976;28;20051;-69
2022/02/03 01:12:22;;;;;;;11.38;6.00;;;;;;;8.10;100.00;99297.31;5085243;28;20025;-69
2022/02/03 01:14:57;;;;;;;9.55;5.78;;;;;;;8.06;100.00;99277.22;5085190;28;20029;-69
2022/02/03 01:17:45;;;;;;;12.60;6.35;;;;;;;8.05;100.00;99296.44;5085467;28;20208;-69
2022/02/03 01:45:18;;;;;;;12.95;6.88;;;;;;;8.08;100.00;99212.56;5084410;28;20019;-69
2022/02/03 01:52:46;;;;;;;15.75;7.45;;;;;;;8.06;100.00;99222.16;5084304;28;20016;-69
2022/02/03 01:55:16;;;;;;;13.75;7.45;;;;;;;8.04;100.00;99218.66;5084444;28;20070;-69
2022/02/03 01:57:54;;;;;;;16.42;7.15;;;;;;;7.98;100.00;99218.66;5084539;28;20024;-69
2022/02/03 02:00:21;;;;;;;15.65;7.47;;;;;;;8.01;100.00;99205.53;5084144;28;20312;-69
2022/02/03 02:03:09;;;;;;;12.63;7.00;;;;;;;8.00;100.00;99205.53;5084213;28;20021;-69
2022/02/03 02:05:53;;;;;;;16.75;7.43;;;;;;;7.99;100.00;99204.69;5084251;28;20216;-69
2022/02/03 02:08:18;;;;;;;12.98;7.07;;;;;;;8.00;100.00;99214.28;5084067;28;20024;-69
2022/02/03 02:11:24;;;;;;;16.15;7.18;;;;;;;7.96;100.00;99203.81;5083898;28;20212;-69
2022/02/03 02:14:13;;;;;;;12.57;6.97;;;;;;;7.98;100.00;99200.31;5084182;28;20046;-69
2022/02/03 02:37:00;;;;;;;11.40;6.05;;;;;;;8.00;100.00;99172.34;5083585;28;20027;-69
2022/02/03 02:39:22;;;;;;;15.13;6.82;;;;;;;8.00;100.00;99195.94;5084005;28;20027;-69
2022/02/03 02:44:39;;;;;;;12.60;6.03;;;;;;;8.01;100.00;99171.47;5083998;28;20016;-69
2022/02/03 02:47:14;;;;;;;12.15;6.82;;;;;;;7.98;100.00;99173.25;5083831;28;20028;-69
2022/02/03 02:50:06;;;;;;;13.15;6.93;;;;;;;7.98;100.00;99174.09;5083529;28;20026;-69
2022/02/03 02:52:43;;;;;;;10.57;5.80;;;;;;;7.96;100.00;99165.38;5059885;28;20048;-69
2022/02/03 02:55:46;;;;;;;11.05;6.28;;;;;;;7.94;100.00;99161.88;5083962;28;20026;-69
2022/02/03 03:37:00;;;;;;;9.60;5.03;;;;;;;7.93;100.00;99127.78;5087075;28;20284;-69
2022/02/03 03:39:29;;;;;;;11.55;5.90;;;;;;;7.94;100.00;99125.16;5087100;28;20216;-69
2022/02/03 03:42:00;;;;;;;11.07;6.10;;;;;;;7.94;100.00;99125.16;5087076;28;20020;-69
2022/02/03 03:44:29;;;;;;;13.48;5.72;;;;;;;7.90;100.00;99112.97;5086969;28;20027;-69
2022/02/03 03:47:03;;;;;;;8.20;5.07;;;;;;;7.87;100.00;99114.69;5086952;28;20024;-69
2022/02/03 03:49:48;;;;;;;8.13;5.18;;;;;;;7.84;100.00;99107.72;5086877;28;20035;-69
2022/02/03 03:52:24;;;;;;;12.73;5.40;;;;;;;7.89;100.00;99105.97;5086528;28;20312;-69
2022/02/03 03:55:06;;;;;;;13.07;5.03;;;;;;;7.88;100.00;99104.22;5086797;28;20020;-69
2022/02/03 04:31:10;;;;;;;9.73;5.80;;;;;;;7.79;100.00;99106.84;5085856;28;20067;-68
2022/02/03 04:57:01;;;;;;;7.80;4.10;;;;;;;7.71;100.00;99090.25;5085237;28;20031;-68
2022/02/03 05:08:31;;;;;;;7.45;4.30;;;;;;;7.77;100.00;99074.53;5085416;28;20024;-68
2022/02/03 05:11:32;;;;;;;13.30;5.18;;;;;;;7.81;100.00;99085.88;5085291;28;20043;-68
2022/02/03 05:14:53;;;;;;;9.85;5.18;;;;;;;7.79;100.00;99072.78;5085149;28;20028;-68
2022/02/03 05:23:52;;;;;;;13.70;5.63;;;;;;;7.78;100.00;99071.03;5060718;28;20213;-68
2022/02/03 06:05:31;;;;;;;10.93;5.03;;;;;;;7.71;100.00;99035.25;5084442;28;20016;-69
2022/02/03 06:13:33;;;;;;;9.68;4.80;;;;;;;7.68;100.00;99029.13;5030277;28;20037;-69
2022/02/03 06:16:41;;;;;;;15.10;6.72;;;;;;;7.65;100.00;99043.13;5084290;28;20023;-69
2022/02/03 06:21:30;;;;;;;12.60;5.63;;;;;;;7.66;100.00;99031.75;5084677;28;20024;-69
2022/02/03 06:29:27;;;;;;;17.92;6.72;;;;;;;7.59;100.00;99032.63;5083935;28;20019;-69
2022/02/03 06:31:53;;;;;;;14.05;5.70;;;;;;;7.62;100.00;99023.91;5083868;28;20028;-69
2022/02/03 06:34:21;;;;;;;11.82;5.55;;;;;;;7.60;100.00;99018.69;5084046;28;20077;-69
2022/02/03 06:36:49;;;;;;;9.35;4.82;;;;;;;7.57;100.00;99018.69;5084267;28;20021;-69
2022/02/03 06:39:20;;;;;;;10.35;4.90;;;;;;;7.56;100.00;99016.91;5083984;28;20021;-69
2022/02/03 06:41:50;;;;;;;11.88;5.63;;;;;;;7.52;100.00;99015.19;5083962;28;20016;-69
2022/02/03 06:44:17;;;;;;;14.00;6.40;;;;;;;7.57;100.00;99013.44;5083819;28;20095;-69
2022/02/03 06:46:47;;;;;;;16.63;6.63;;;;;;;7.60;100.00;99010.84;5084792;28;20091;-69
2022/02/03 06:52:21;;;;;;;12.75;6.22;;;;;;;7.58;100.00;98999.47;5026610;28;20045;-69
2022/02/03 06:57:40;;;;;;;23.50;7.47;;;;;;;7.64;100.00;99003.81;5026627;28;20097;-69
2022/02/03 07:00:15;;;;;;;17.35;6.85;;;;;;;7.62;100.00;98995.97;5026402;28;20335;-69
2022/02/03 07:02:43;;;;;;;17.20;7.18;;;;;;;7.57;100.00;99005.59;5026474;28;20097;-69
2022/02/03 07:05:09;;;;;;;15.85;7.43;;;;;;;7.59;100.00;99009.06;5026242;28;20030;-69
2022/02/03 07:07:39;;;;;;;14.15;6.32;;;;;;;7.59;100.00;99001.19;5026268;28;20353;-69
2022/02/03 07:10:06;;;;;;;14.00;6.00;;;;;;;7.58;100.00;98993.34;5025999;28;20373;-69
2022/02/03 07:12:31;;;;;;;13.75;5.60;;;;;;;7.62;100.00;98985.47;5026069;28;20034;-69
2022/02/03 07:14:59;;;;;;;16.13;5.93;;;;;;;7.59;100.00;98990.72;5026092;28;20385;-69
2022/02/03 07:17:25;;;;;;;12.57;5.88;;;;;;;7.63;100.00;98997.69;5026093;28;20029;-69
2022/02/03 07:19:53;;;;;;;12.70;5.85;;;;;;;7.65;100.00;98995.97;5026038;28;20029;-69
2022/02/03 07:22:19;;;;;;;11.95;5.80;;;;;;;7.64;100.00;98988.97;5025983;28;20380;-69
2022/02/03 07:24:45;;;;;;;11.23;5.55;;;;;;;7.67;100.00;98988.97;5026061;28;20026;-69
2022/02/03 07:27:11;;;;;;;11.15;4.60;;;;;;;7.69;100.00;98984.59;5082526;28;20150;-69
2022/02/03 07:29:36;;;;;;;9.45;4.35;;;;;;;7.63;100.00;98971.50;5087169;28;20036;-69
2022/02/03 07:32:02;;;;;;;10.93;4.68;;;;;;;7.68;100.00;98956.66;5087341;28;20074;-69
2022/02/03 07:34:29;;;;;;;7.70;3.58;;;;;;;7.73;100.00;98962.78;5087721;28;20052;-69
2022/02/03 07:36:54;;;;;;;9.18;4.45;;;;;;;7.77;100.00;98964.50;5087591;28;20211;-69
2022/02/03 07:39:20;;;;;;;8.95;4.72;;;;;;;7.75;100.00;98950.50;5087241;28;20020;-69
2022/02/03 07:41:46;;;;;;;8.18;3.88;;;;;;;7.72;100.00;98942.66;5087230;28;20017;-69
2022/02/03 07:44:14;;;;;;;9.63;4.25;;;;;;;7.76;100.00;98952.28;5087280;28;20130;-69
2022/02/03 07:46:40;;;;;;;7.97;4.43;;;;;;;7.77;100.00;98959.25;5087170;28;20027;-69
2022/02/03 07:49:05;;;;;;;7.50;4.28;;;;;;;7.79;100.00;98957.47;5087191;28;20020;-69
2022/02/03 07:51:31;;;;;;;9.32;4.20;;;;;;;7.81;100.00;98953.13;5087048;28;20092;-69
2022/02/03 07:53:56;;;;;;;7.78;3.92;;;;;;;7.72;100.00;98950.53;5086990;28;20020;-69
2022/02/03 07:56:22;;;;;;;11.30;3.92;;;;;;;7.70;100.00;98931.34;5086875;28;20024;-69
2022/02/03 07:58:47;;;;;;;8.35;4.28;;;;;;;7.70;100.00;98936.56;5085959;28;20220;-69
2022/02/03 08:01:13;;;;;;;7.45;3.35;;;;;;;7.74;100.00;98926.94;5086693;28;20059;-69
2022/02/03 08:03:42;;;;;;;7.35;3.20;;;;;;;7.73;100.00;98952.28;5086915;28;20083;-69
2022/02/03 08:06:12;;;;;;;6.60;3.10;;;;;;;7.68;100.00;98954.03;5086843;28;20020;-69
2022/02/03 08:08:43;;;;;;;6.00;3.20;;;;;;;7.72;100.00;98955.75;5086558;28;20028;-69
2022/02/03 08:11:14;;;;;;;5.68;2.72;;;;;;;7.69;100.00;98966.25;5086679;28;20193;-69
2022/02/03 08:13:52;;;;;;;5.53;2.90;;;;;;;7.63;100.00;98955.78;5086979;28;20332;-69
2022/02/03 08:16:29;;;;;;;6.10;2.78;;;;;;;7.70;100.00;98947.06;5086811;28;20016;-69
2022/02/03 08:19:05;;;;;;;6.05;2.72;;;;;;;7.72;100.00;98929.56;5086562;28;20083;-69
2022/02/03 08:21:32;;;;;;;4.57;2.45;;;;;;;7.72;100.00;98926.94;5086424;28;20051;-69
2022/02/03 08:27:11;;;;;;;6.13;2.63;;;;;;;7.68;100.00;98909.50;5063120;28;20040;-69
2022/02/03 08:30:07;;;;;;;6.15;3.03;;;;;;;7.74;100.00;98912.09;5086120;28;20040;-69
2022/02/03 08:32:33;;;;;;;3.85;2.20;;;;;;;7.70;100.00;98910.38;5085917;28;20032;-69
2022/02/03 08:35:19;;;;;;;7.05;2.90;;;;;;;7.76;100.00;98902.50;5086295;28;20057;-69
2022/02/03 08:40:25;;;;;;;4.32;2.17;;;;;;;7.82;100.00;98898.97;5086604;28;20017;-69
2022/02/03 08:42:51;;;;;;;4.20;2.10;;;;;;;7.91;100.00;98894.53;5086279;28;20313;-69
2022/02/03 08:45:16;;;;;;;4.68;2.40;;;;;;;7.99;100.00;98894.50;5086386;28;20028;-69
2022/02/03 08:47:42;;;;;;;5.15;2.58;;;;;;;8.01;100.00;98903.25;5086147;28;20107;-69
2022/02/03 08:50:08;;;;;;;4.57;2.35;;;;;;;8.04;100.00;98901.47;5086068;28;20035;-69
2022/02/03 08:52:48;;;;;;;5.97;2.72;;;;;;;8.02;100.00;98887.53;5086211;28;20045;-69
2022/02/03 09:28:55;;;;;;;4.03;2.17;;;;;;;8.32;98.46;98866.38;5085235;28;20074;-69
2022/02/03 09:53:27;;;;;;;3.83;2.30;;;;;;;8.35;98.97;98813.91;5084971;28;20023;-69
2022/02/03 10:00:40;;;;;;;7.15;3.05;;;;;;;8.38;98.87;98808.63;5085126;28;20025;-69
2022/02/03 10:03:21;;;;;;;3.88;2.20;;;;;;;8.34;98.16;98801.69;5084740;28;20024;-69
2022/02/03 10:06:06;;;;;;;3.60;2.05;;;;;;;8.37;98.59;98816.53;5084821;28;20035;-69
2022/02/03 10:08:33;;;;;;;6.35;3.03;;;;;;;8.40;98.53;98806.00;5084858;28;20026;-69
2022/02/03 10:11:11;;;;;;;4.72;2.10;;;;;;;8.46;98.82;98816.44;5067152;28;20331;-69
2022/02/03 10:13:42;;;;;;;6.13;2.88;;;;;;;8.40;97.60;98825.25;5084750;28;20312;-69
2022/02/03 10:16:07;;;;;;;5.88;3.28;;;;;;;8.39;96.27;98815.63;5084493;28;20024;-69
2022/02/03 10:18:33;;;;;;;5.10;2.47;;;;;;;8.31;96.51;98801.72;5084574;28;20091;-69
2022/02/03 10:21:00;;;;;;;5.18;2.60;;;;;;;8.28;96.95;98812.22;5084179;28;20020;-69
2022/02/03 10:23:28;;;;;;;4.93;2.40;;;;;;;8.26;96.71;98819.22;5084468;28;20024;-69
2022/02/03 10:26:04;;;;;;;3.17;2.13;;;;;;;8.26;96.82;98782.50;5084391;28;20035;-69
2022/02/03 10:28:30;;;;;;;4.82;2.67;;;;;;;8.28;97.23;98775.50;5084577;28;20031;-69
2022/02/03 10:31:02;;;;;;;6.68;3.05;;;;;;;8.28;97.47;98775.50;5084087;28;20040;-69
2022/02/03 10:33:40;;;;;;;7.28;2.47;;;;;;;8.33;98.02;98793.84;5084874;28;20071;-69
2022/02/03 10:36:13;;;;;;;9.15;3.45;;;;;;;8.29;98.32;98782.47;5084708;28;20246;-69
2022/02/03 10:52:19;;;;;;;5.88;2.80;;;;;;;8.24;96.49;98765.94;5084146;28;20224;-69
2022/02/03 11:02:27;;;;;;;5.30;2.47;;;;;;;8.25;96.76;98744.06;5084157;28;20080;-69
2022/02/03 11:07:47;;;;;;;5.47;2.58;;;;;;;8.28;97.46;98738.81;5084344;28;20024;-69
2022/02/03 11:10:30;;;;;;;4.93;2.63;;;;;;;8.31;97.14;98743.13;5084169;28;20335;-69
2022/02/03 11:12:55;;;;;;;3.88;2.28;;;;;;;8.35;97.02;98724.75;5084177;28;20088;-69
2022/02/03 11:15:24;;;;;;;4.18;2.50;;;;;;;8.29;96.30;98719.56;5084216;28;20020;-69
2022/02/03 11:17:52;;;;;;;5.50;2.22;;;;;;;8.36;96.90;98709.91;5084516;28;20028;-69
2022/02/03 11:20:21;;;;;;;4.68;2.13;;;;;;;8.34;97.20;98717.78;5084149;28;20021;-69
2022/02/03 11:22:57;;;;;;;3.72;2.50;;;;;;;8.34;97.23;98743.13;5084439;28;20016;-69
2022/02/03 11:30:59;;;;;;;3.78;2.08;;;;;;;8.26;98.01;98693.34;5083896;28;19912;-69
2022/02/03 11:49:52;;;;;;;5.80;2.78;;;;;;;8.27;98.51;98683.75;5087579;28;20048;-69
2022/02/03 11:52:51;;;;;;;5.32;2.60;;;;;;;8.37;97.79;98683.66;5087186;28;20087;-69
2022/02/03 12:13:49;;;;;;;2.95;1.65;;;;;;;8.05;97.69;98645.47;5086940;28;20251;-69
2022/02/03 12:16:35;;;;;;;4.57;2.28;;;;;;;7.99;97.64;98651.66;5086788;28;20089;-69
2022/02/03 12:21:58;;;;;;;6.43;2.10;;;;;;;8.14;96.48;98646.25;5087102;28;20080;-69
2022/02/03 12:30:27;;;;;;;2.80;2.20;;;;;;;7.90;97.03;98624.63;5052380;28;20220;-69
2022/02/03 12:38:36;;;;;;;3.38;1.77;;;;;;;7.97;97.00;98611.47;5086445;28;20027;-69
2022/02/03 12:41:18;;;;;;;3.05;1.50;;;;;;;7.99;96.98;98614.06;5086534;28;20228;-69
2022/02/03 12:44:04;;;;;;;4.32;1.60;;;;;;;7.96;97.48;98633.31;5086253;28;20055;-69
2022/02/03 12:46:31;;;;;;;2.78;1.42;;;;;;;8.00;96.32;98628.91;5085970;28;20025;-69
2022/02/03 12:49:00;;;;;;;3.53;1.98;;;;;;;7.99;96.23;98614.06;5086376;28;20016;-69
2022/02/03 12:51:28;;;;;;;2.88;1.50;;;;;;;7.96;95.71;98604.50;5086091;28;20024;-69
2022/02/03 12:53:54;;;;;;;2.63;1.58;;;;;;;7.95;96.32;98591.41;5086014;28;20323;-69
2022/02/03 12:56:25;;;;;;;2.42;1.50;;;;;;;7.93;96.20;98587.94;5086068;28;20043;-69
2022/02/03 12:59:00;;;;;;;3.38;1.60;;;;;;;7.97;95.70;98584.38;5085948;28;20020;-69
2022/02/03 13:01:32;;;;;;;3.70;1.80;;;;;;;7.98;95.69;98581.75;5085773;28;20020;-69
2022/02/03 13:03:58;;;;;;;;;;;;;;;7.94;95.19;98573.97;5086184;28;20062;-69
2022/02/03 13:06:27;;;;;;;2.15;1.45;;;;;;;8.01;95.64;98571.22;5085875;28;19982;-69
2022/02/03 13:08:57;;;;;;;2.78;1.60;;;;;;;7.88;95.03;98569.63;5085604;28;20107;-69
2022/02/03 13:11:41;;;;;;;4.10;1.75;;;;;;;7.72;96.03;98568.03;5085429;28;20119;-69
2022/02/03 13:16:36;;;;;;;2.95;1.45;;;;;;;7.88;96.10;98559.16;5085659;28;20016;-69
2022/02/03 13:22:02;;;;;;;2.40;1.40;;;;;;;7.82;95.50;98564.44;5085778;28;20054;-69
2022/02/03 13:27:18;;;;;;;4.72;2.00;;;;;;;7.85;95.15;98553.94;5085386;28;20342;-69
2022/02/03 13:29:57;;;;;;;3.55;1.80;;;;;;;7.88;95.94;98553.91;5085127;28;20095;-69
2022/02/03 13:32:28;;;;;;;6.13;1.92;;;;;;;7.89;95.84;98554.78;5085208;28;20025;-69
2022/02/03 13:35:17;;;;;;;2.97;1.67;;;;;;;7.85;97.01;98553.94;5085645;28;20012;-69
2022/02/03 13:37:58;;;;;;;7.00;2.20;;;;;;;7.84;96.08;98541.72;5085347;28;20031;-69
2022/02/03 13:40:26;;;;;;;5.15;2.30;;;;;;;7.87;95.67;98546.94;5085285;28;20094;-69
2022/02/03 13:43:01;;;;;;;5.90;2.42;;;;;;;7.89;95.59;98545.19;5085359;28;20020;-69
2022/02/03 13:45:27;;;;;;;3.10;1.90;;;;;;;7.87;95.24;98546.06;5084817;28;20020;-69
2022/02/03 13:47:52;;;;;;;5.43;2.40;;;;;;;7.87;95.59;98546.06;5085080;28;20216;-69
2022/02/03 13:50:26;;;;;;;4.93;2.47;;;;;;;7.82;95.86;98543.47;5085265;28;20016;-69
2022/02/03 13:53:00;;;;;;;5.93;1.90;;;;;;;7.84;95.77;98541.72;5085378;28;20327;-69
2022/02/03 14:18:59;;;;;;;8.15;2.35;;;;;;;7.83;94.29;98508.56;4984109;28;20207;-69
2022/02/03 14:21:25;;;;;;;6.80;2.40;;;;;;;7.81;94.81;98507.69;5003007;28;20034;-69
2022/02/03 14:29:26;;;;;;;6.82;2.60;;;;;;;7.89;93.99;98518.97;4997083;28;20071;-69
2022/02/03 14:32:04;;;;;;;4.90;2.75;;;;;;;7.86;94.17;98513.75;5003632;28;20037;-69
2022/02/03 14:34:32;;;;;;;8.18;2.60;;;;;;;7.90;93.85;98494.50;5003678;28;20449;-69
2022/02/03 14:37:04;;;;;;;6.32;2.50;;;;;;;7.89;93.77;98482.28;5003476;28;20030;-69
2022/02/03 14:39:52;;;;;;;9.27;2.30;;;;;;;7.93;93.61;98477.88;5003813;28;20399;-69
2022/02/03 14:42:17;;;;;;;7.97;2.45;;;;;;;8.01;93.05;98484.75;5003502;28;20263;-69
2022/02/03 14:44:43;;;;;;;4.95;2.70;;;;;;;8.02;92.83;98489.13;5003620;28;20099;-69
2022/02/03 14:47:10;;;;;;;4.65;2.22;;;;;;;7.96;93.32;98481.34;5082014;28;20040;-69
2022/02/03 14:49:39;;;;;;;4.88;2.72;;;;;;;8.00;93.32;98480.41;5084900;28;20033;-69
2022/02/03 15:00:20;;;;;;;3.45;2.28;;;;;;;8.09;93.89;98493.41;5084527;28;20047;-69
2022/02/03 15:02:45;;;;;;;3.72;2.22;;;;;;;8.11;93.35;98496.88;5084734;28;20020;-69
2022/02/03 15:05:21;;;;;;;2.70;1.80;;;;;;;8.07;93.69;98495.16;5084510;28;20063;-69
2022/02/03 15:07:46;;;;;;;5.35;2.53;;;;;;;8.07;93.28;98487.28;5085785;28;20028;-69
2022/02/03 15:10:40;;;;;;;5.93;2.28;;;;;;;8.03;94.24;98487.34;5088659;28;20295;-69
2022/02/03 15:15:29;;;;;;;4.20;2.13;;;;;;;8.02;93.27;98498.72;5088754;28;20032;-69
2022/02/03 15:17:55;;;;;;;5.55;2.60;;;;;;;8.03;94.47;98496.09;5088489;28;20211;-69
2022/02/03 15:20:20;;;;;;;4.25;1.98;;;;;;;8.00;94.07;98495.25;5088179;28;20087;-69
2022/02/03 15:22:46;;;;;;;3.30;1.85;;;;;;;7.98;93.73;98495.25;5088464;28;20336;-69
2022/02/03 15:25:11;;;;;;;3.33;1.83;;;;;;;7.93;93.85;98494.47;5088236;28;20020;-69
2022/02/03 15:27:38;;;;;;;5.40;2.10;;;;;;;7.87;93.79;98488.41;5088057;28;20097;-69
2022/02/03 15:30:05;;;;;;;7.85;2.58;;;;;;;7.87;94.60;98502.38;5087985;28;20176;-69
2022/02/03 15:32:37;;;;;;;3.63;1.95;;;;;;;7.87;93.71;98510.25;5070446;28;20036;-69
2022/02/03 15:35:07;;;;;;;5.03;2.50;;;;;;;7.85;93.87;98504.16;5087275;28;20017;-69
2022/02/03 15:37:33;;;;;;;4.55;2.20;;;;;;;7.85;94.33;98496.28;5085955;28;20020;-69
2022/02/03 15:40:04;;;;;;;4.53;2.03;;;;;;;7.82;94.38;98485.00;5086965;28;20030;-68
2022/02/03 15:42:30;;;;;;;3.05;1.77;;;;;;;7.81;94.75;98475.38;5085578;28;20037;-68
2022/02/03 15:44:58;;;;;;;2.97;1.67;;;;;;;7.78;94.69;98464.97;5085173;28;20031;-68
2022/02/03 15:47:32;;;;;;;4.20;2.15;;;;;;;7.76;94.69;98467.59;5085016;28;20088;-68
2022/02/03 16:17:05;;;;;;;3.63;2.33;;;;;;;7.60;96.21;98458.16;5083744;28;20034;-69
2022/02/03 16:19:42;;;;;;;4.35;2.40;;;;;;;7.49;96.31;98460.00;5084290;28;20017;-69
2022/02/03 16:22:20;;;;;;;3.95;2.28;;;;;;;7.48;97.27;98468.75;5083591;28;20020;-69
2022/02/03 16:24:52;;;;;;;3.80;2.28;;;;;;;7.48;97.60;98462.63;5084167;28;20048;-69
2022/02/03 16:54:34;;;;;;;4.80;2.40;;;;;;;7.25;98.99;98451.53;5048823;28;20052;-69
2022/02/03 16:57:04;;;;;;;3.65;2.47;;;;;;;7.25;99.16;98452.41;5084553;28;20027;-69
2022/02/03 16:59:31;;;;;;;7.38;3.33;;;;;;;7.30;99.00;98453.22;5084936;28;20039;-69
2022/02/03 17:01:56;;;;;;;6.95;3.22;;;;;;;7.28;99.01;98452.34;5084917;28;20265;-69
2022/02/03 17:04:21;;;;;;;7.72;3.10;;;;;;;7.20;98.19;98455.94;5085096;28;20054;-69
2022/02/03 17:06:47;;;;;;;6.47;3.25;;;;;;;7.23;98.30;98448.94;5085503;28;20233;-69
2022/02/03 17:09:14;;;;;;;8.70;3.38;;;;;;;7.17;98.66;98441.13;5085431;28;20371;-69
2022/02/03 17:11:40;;;;;;;6.68;3.85;;;;;;;7.28;98.53;98434.03;5085320;28;20084;-69
2022/02/03 17:14:06;;;;;;;4.85;2.85;;;;;;;7.31;98.35;98439.22;5085369;28;20127;-69
2022/02/03 17:16:31;;;;;;;5.82;3.17;;;;;;;7.25;98.25;98438.44;5085255;28;20032;-69
2022/02/03 17:18:57;;;;;;;8.57;4.47;;;;;;;7.22;98.59;98438.47;5085271;28;20025;-69
2022/02/03 17:21:27;;;;;;;8.80;4.07;;;;;;;7.12;98.70;98435.06;5085432;28;20027;-69
2022/02/03 17:23:53;;;;;;;6.10;3.42;;;;;;;7.18;98.81;98437.63;5085086;28;20021;-69
2022/02/03 17:26:26;;;;;;;7.38;3.90;;;;;;;7.15;98.81;98440.25;5085111;28;20032;-69
2022/02/03 18:09:31;;;;;;;11.60;4.95;;;;;;;7.24;99.13;98432.31;5084333;28;20067;-69
2022/02/03 18:17:38;;;;;;;9.70;5.05;;;;;;;7.19;99.25;98418.44;5084385;28;20035;-69
2022/02/03 18:31:08;;;;;;;10.32;4.18;;;;;;;7.20;99.19;98430.63;5083961;28;20047;-69
2022/02/03 18:47:13;;;;;;;7.35;3.58;;;;;;;7.06;98.69;98437.75;5084036;28;20047;-69
2022/02/03 18:54:18;;;;;;;4.18;2.63;;;;;;;7.08;97.24;98446.44;5083871;28;20044;-69
2022/02/03 20:04:04;;;;;;;4.72;2.28;;;;;;;6.72;95.34;98456.31;5086810;28;20036;-69
2022/02/03 20:09:28;;;;;;;5.53;2.45;;;;;;;6.72;94.95;98457.19;5086670;28;20045;-69
2022/02/03 20:11:53;;;;;;;9.82;2.53;;;;;;;6.72;94.61;98468.50;5081514;28;20105;-69
2022/02/03 20:14:20;;;;;;;7.97;3.63;;;;;;;6.74;95.11;98471.09;5085404;28;20324;-67
2022/02/03 20:16:47;;;;;;;5.60;3.08;;;;;;;6.74;94.96;98468.50;5085471;28;20050;-67
2022/02/03 20:19:12;;;;;;;6.82;3.03;;;;;;;6.75;94.21;98467.63;5085220;28;20020;-68
2022/02/03 20:21:40;;;;;;;4.18;2.88;;;;;;;6.72;94.62;98467.66;5085336;28;20028;-68
2022/02/03 20:24:06;;;;;;;5.75;3.58;;;;;;;6.71;94.71;98463.31;5085205;28;20030;-68
2022/02/03 20:26:34;;;;;;;6.72;3.53;;;;;;;6.70;94.84;98461.56;5085331;28;20335;-68
2022/02/03 20:29:00;;;;;;;5.78;3.22;;;;;;;6.66;94.62;98462.47;5085214;28;20036;-67
2022/02/03 20:31:25;;;;;;;6.93;3.40;;;;;;;6.68;95.41;98455.50;5084896;28;20037;-66
2022/02/03 20:33:51;;;;;;;5.75;3.55;;;;;;;6.69;95.00;98449.38;5081911;28;20212;-66
2022/02/03 20:36:16;;;;;;;7.80;3.33;;;;;;;6.61;95.34;98448.53;5091351;28;20203;-67
2022/02/03 20:38:41;;;;;;;7.70;3.38;;;;;;;6.63;95.13;98439.81;5094120;28;20250;-67
2022/02/03 20:41:07;;;;;;;7.38;3.50;;;;;;;6.64;95.31;98453.75;5087786;28;20028;-67
2022/02/03 20:43:32;;;;;;;7.72;3.25;;;;;;;6.66;95.11;98452.00;5084703;28;20219;-67
2022/02/03 20:45:58;;;;;;;6.03;3.58;;;;;;;6.67;95.27;98458.13;5084587;28;20194;-67
2022/02/03 20:48:25;;;;;;;7.38;3.75;;;;;;;6.61;95.30;98448.53;5084148;28;20078;-67
2022/02/03 20:50:51;;;;;;;8.23;3.78;;;;;;;6.60;95.14;98445.06;5084123;28;20347;-67
2022/02/03 20:53:17;;;;;;;6.75;3.38;;;;;;;6.58;95.88;98449.44;5083927;28;20016;-67
2022/02/03 20:55:47;;;;;;;11.98;4.45;;;;;;;6.63;95.64;98446.78;5083910;28;20386;-67
2022/02/03 20:58:16;;;;;;;7.20;4.30;;;;;;;6.58;95.47;98448.56;5084095;28;20016;-67
2022/02/03 21:00:48;;;;;;;10.80;4.60;;;;;;;6.63;95.12;98446.78;5084481;28;20021;-67
2022/02/03 21:03:22;;;;;;;6.35;3.72;;;;;;;6.63;95.10;98452.91;5084103;28;20028;-67
2022/02/03 21:05:48;;;;;;;6.75;3.30;;;;;;;6.66;96.00;98457.22;5064617;28;20375;-67
2022/02/03 21:08:17;;;;;;;9.10;4.38;;;;;;;6.66;95.43;98462.47;5064413;28;20033;-67
2022/02/03 21:10:43;;;;;;;8.02;4.22;;;;;;;6.65;95.55;98450.28;5064277;28;20032;-67
2022/02/03 21:13:08;;;;;;;7.72;3.70;;;;;;;6.65;95.26;98455.50;5064324;28;20212;-67
2022/02/03 21:15:37;;;;;;;5.60;3.63;;;;;;;6.56;95.06;98439.88;5067956;28;20126;-67
2022/02/03 21:18:07;;;;;;;8.23;3.72;;;;;;;6.57;96.18;98452.06;5084013;28;20067;-67
2022/02/03 21:20:36;;;;;;;6.90;3.72;;;;;;;6.55;95.93;98445.97;5084184;28;20035;-67
2022/02/03 21:23:04;;;;;;;7.82;3.75;;;;;;;6.57;95.82;98444.22;5083806;28;20017;-67
2022/02/03 21:27:58;;;;;;;10.10;4.40;;;;;;;6.51;95.93;98446.88;5083176;28;20356;-67
2022/02/03 21:30:24;;;;;;;6.47;3.60;;;;;;;6.52;96.25;98443.41;5083485;28;20085;-67
2022/02/03 21:32:50;;;;;;;7.47;4.10;;;;;;;6.51;96.55;98452.09;5083745;28;20211;-67
2022/02/03 21:35:19;;;;;;;8.95;4.95;;;;;;;6.53;96.76;98450.34;5083482;28;20050;-67
2022/02/03 21:37:45;;;;;;;9.30;4.68;;;;;;;6.51;96.99;98458.22;5083797;28;20040;-67
2022/02/03 21:40:11;;;;;;;6.68;3.85;;;;;;;6.51;96.83;98447.75;5083480;28;20035;-67
2022/02/03 21:42:37;;;;;;;6.25;3.85;;;;;;;6.57;96.85;98452.06;5082855;28;20051;-67
2022/02/03 21:45:05;;;;;;;8.98;4.05;;;;;;;6.58;96.75;98448.56;5083528;28;20025;-67
2022/02/03 21:47:31;;;;;;;7.07;3.60;;;;;;;6.58;95.98;98453.78;5084010;28;20331;-67
2022/02/03 21:49:58;;;;;;;8.32;3.50;;;;;;;6.53;96.68;98456.47;5083474;28;20079;-67
2022/02/03 21:52:32;;;;;;;6.72;3.65;;;;;;;6.55;96.19;98448.56;5083034;28;20020;-67
2022/02/03 21:54:59;;;;;;;6.55;3.53;;;;;;;6.56;96.56;98455.56;5082780;28;20087;-67
2022/02/03 21:57:24;;;;;;;9.25;4.55;;;;;;;6.50;96.43;98466.06;5083200;28;20324;-67
2022/02/03 21:59:52;;;;;;;7.82;4.07;;;;;;;6.51;97.05;98462.56;5083169;28;20043;-67
2022/02/03 22:02:20;;;;;;;7.20;3.42;;;;;;;6.48;96.66;98463.44;5083054;28;20039;-67
2022/02/03 22:04:45;;;;;;;9.73;4.15;;;;;;;6.51;96.57;98473.00;5083277;28;20024;-67
2022/02/03 22:07:11;;;;;;;8.95;3.88;;;;;;;6.54;97.23;98467.75;5082690;28;20212;-67
2022/02/03 22:09:38;;;;;;;8.55;4.30;;;;;;;6.53;96.96;98468.66;5083059;28;20252;-67
2022/02/03 22:12:05;;;;;;;9.10;4.45;;;;;;;6.51;97.19;98462.56;5083413;28;20246;-67
2022/02/03 22:14:31;;;;;;;6.90;4.10;;;;;;;6.48;97.58;98463.44;5083209;28;20031;-67
2022/02/03 22:16:59;;;;;;;5.22;3.40;;;;;;;6.50;97.42;98466.94;5082574;28;20219;-67
2022/02/03 22:19:25;;;;;;;11.32;4.63;;;;;;;6.51;97.64;98466.03;5082673;28;20017;-67
2022/02/03 22:22:04;;;;;;;7.10;4.25;;;;;;;6.46;97.90;98467.81;5082737;28;20020;-67
2022/02/03 22:25:12;;;;;;;6.47;3.88;;;;;;;6.51;97.78;98467.78;5083041;28;20312;-67
2022/02/03 22:48:44;;;;;;;10.32;4.60;;;;;;;6.49;99.79;98485.25;5032202;28;20040;-67
2022/02/03 22:51:10;;;;;;;9.35;4.80;;;;;;;6.41;99.77;98497.47;5082541;28;20215;-67
2022/02/03 22:53:36;;;;;;;10.57;4.97;;;;;;;6.43;100.00;98490.50;5082713;28;20123;-67
2022/02/03 22:56:07;;;;;;;9.68;5.53;;;;;;;6.38;100.00;98494.88;5082860;28;20194;-67
2022/02/03 23:01:17;;;;;;;10.48;5.25;;;;;;;6.44;100.00;98497.47;5082120;28;20023;-67
2022/02/03 23:03:43;;;;;;;10.60;5.40;;;;;;;6.41;100.00;98492.25;5082353;28;20052;-67
2022/02/03 23:06:10;;;;;;;11.65;5.35;;;;;;;6.40;100.00;98506.19;5082703;28;20024;-67
2022/02/03 23:08:53;;;;;;;12.57;5.65;;;;;;;6.42;100.00;98488.75;5082390;28;20038;-67